Flight Track Log - Related Links

Times and Time Zones

All times are in EDT time to prevent confusion due to time zone crossing. See the ELJ620 flight status page for this flight to view local times or setup timezone preferences in your user account.

Time Position Orientation Groundspeed Altitude Reporting Facility
EDT Latitude Longitude Course Direction KTS MPH feet Rate Location/Type
Fri 08:34:14 AM 33.9000 -84.3000 292° West 161 185 1,800  Level Atlanta TRACON
Fri 08:35:14 AM 33.9167 -84.3500 292° West 220 253 4,700 2,211 Climbing Atlanta TRACON
Fri 08:36:08 AM 33.8667 -84.3833 209° Southwest 239 275 6,000 737 Climbing Atlanta TRACON
Fri 08:37:08 AM 33.8000 -84.3833 180° South 243 280 6,100  Climbing Atlanta TRACON
Fri 08:38:02 AM 33.7500 -84.4000 195° South 252 290 6,000  Descending Atlanta TRACON
Fri 08:39:02 AM 33.6667 -84.4000 180° South 246 283 6,100 50 Climbing Atlanta TRACON
Fri 08:40:02 AM 33.6000 -84.4000 180° South 276 318 6,100  Level Atlanta TRACON
Fri 08:41:02 AM 33.5333 -84.4000 180° South 238 274 6,100 53 Level Atlanta TRACON
Fri 08:41:56 AM 33.4833 -84.4000 180° South 251 289 6,200 1,935 Climbing Atlanta TRACON
Fri 08:44:08 AM 33.3306 -84.3472 164° South 257 296 12,100 2,813 Climbing Atlanta Center
Fri 08:45:08 AM 33.2639 -84.3219 162° South 262 302 15,200 2,450 Climbing Atlanta Center
Fri 08:46:08 AM 33.2033 -84.2969 161° South 262 302 17,000 2,350 Climbing Atlanta Center
Fri 08:47:08 AM 33.1303 -84.2644 160° South 270 311 19,900 2,750 Climbing Atlanta Center
Fri 08:48:08 AM 33.0594 -84.2347 161° South 275 316 22,500 2,450 Climbing Atlanta Center
Fri 08:49:08 AM 32.9800 -84.1997 160° South 287 330 24,800 2,300 Climbing Atlanta Center
Fri 08:50:08 AM 32.9028 -84.1675 161° South 292 336 27,100 2,150 Climbing Atlanta Center
Fri 08:51:08 AM 32.8194 -84.1353 162° South 298 343 29,100 1,850 Climbing Atlanta Center
Fri 08:52:08 AM 32.7400 -84.0956 157° South 310 357 30,800 1,550 Climbing Atlanta Center
Fri 08:53:08 AM 32.6525 -84.0586 160° South 325 374 32,200 1,450 Climbing Atlanta Center
Fri 08:54:08 AM 32.5606 -84.0192 160° South 337 388 33,700 1,450 Climbing Atlanta Center
Fri 08:55:08 AM 32.4708 -83.9822 161° South 343 395 35,100 1,400 Climbing Atlanta Center
Fri 08:56:08 AM 32.3789 -83.9431 160° South 349 402 36,500 1,350 Climbing Atlanta Center
Fri 08:57:08 AM 32.2831 -83.9036 161° South 349 402 37,800 1,200 Climbing Atlanta Center
Fri 08:58:08 AM 32.1889 -83.8622 160° South 349 402 38,900 874 Climbing Atlanta Center
Fri 08:59:39 AM 32.0317 -83.7969 161° South 348 400 40,000 750 Climbing Jacksonville Center
Fri 09:00:40 AM 31.9319 -83.7542 160° South 366 421 40,800 496 Climbing Jacksonville Center
Fri 09:01:40 AM 31.8403 -83.7119 159° South 381 438 41,000 100 Climbing Jacksonville Center
Fri 09:02:40 AM 31.7319 -83.6669 161° South 402 463 41,000  Level Jacksonville Center
Fri 09:03:39 AM 31.6236 -83.6219 161° South 407 468 41,000  Level Jacksonville Center
Fri 09:04:40 AM 31.5111 -83.5797 162° South 420 483 41,000  Level Jacksonville Center
Fri 09:05:40 AM 31.4092 -83.5378 161° South 408 470 41,000  Level Jacksonville Center
Fri 09:06:39 AM 31.3050 -83.4931 160° South 403 464 41,000  Level Jacksonville Center
Fri 09:07:40 AM 31.2008 -83.4439 158° South 403 464 41,000  Level Jacksonville Center
Fri 09:08:40 AM 31.0967 -83.3922 157° South 403 464 41,000  Level Jacksonville Center
Fri 09:09:40 AM 30.9944 -83.3433 158° South 408 470 41,000  Level Jacksonville Center
Fri 09:10:40 AM 30.8881 -83.2894 157° South 408 470 41,000  Level Jacksonville Center
Fri 09:11:39 AM 30.7900 -83.2408 157° South 408 470 41,000  Level Jacksonville Center
Fri 09:12:40 AM 30.6839 -83.1897 157° South 403 464 41,000  Level Jacksonville Center
Fri 09:13:40 AM 30.5794 -83.1411 158° South 403 464 41,000  Level Jacksonville Center
Fri 09:14:39 AM 30.4731 -83.0903 158° South 408 470 41,000  Level Jacksonville Center
Fri 09:15:40 AM 30.3686 -83.0419 158° South 413 475 41,000  Level Jacksonville Center
Fri 09:16:39 AM 30.2622 -82.9911 158° South 413 475 41,000  Level Jacksonville Center
Fri 09:17:39 AM 30.1581 -82.9406 157° South 413 475 41,000  Level Jacksonville Center
Fri 09:18:40 AM 30.0514 -82.8903 158° South 413 475 41,000  Level Jacksonville Center
Fri 09:19:40 AM 29.9408 -82.8447 160° South 419 482 41,000  Level Jacksonville Center
Fri 09:20:40 AM 29.8364 -82.7944 157° South 414 476 41,000  Level Jacksonville Center
Fri 09:21:39 AM 29.7319 -82.7467 158° South 409 471 41,000  Level Jacksonville Center
Fri 09:22:39 AM 29.6256 -82.6967 158° South 409 471 41,000  Level Jacksonville Center
Fri 09:23:39 AM 29.5231 -82.6492 158° South 409 471 41,000  Level Jacksonville Center
Fri 09:24:39 AM 29.4186 -82.5944 155° Southeast 414 476 41,000  Level Jacksonville Center
Fri 09:25:39 AM 29.3161 -82.5497 159° South 414 476 41,000  Level Jacksonville Center
Fri 09:26:39 AM 29.2117 -82.5000 157° South 414 476 41,000  Level Jacksonville Center
Fri 09:27:40 AM 29.1092 -82.4553 159° South 414 476 41,000 -350 Level Jacksonville Center
Fri 09:28:39 AM 28.9922 -82.4319 170° South 402 463 40,300 -850 Descending Jacksonville Center
Fri 09:29:40 AM 28.8836 -82.4183 174° South 397 457 39,300 -992 Descending Jacksonville Center
Fri 09:30:40 AM 28.7750 -82.4047 174° South 397 457 38,300 -950 Descending Jacksonville Center
Fri 09:31:40 AM 28.6769 -82.3933 174° South 397 457 37,400 -650 Descending Jacksonville Center
Fri 09:32:40 AM 28.5664 -82.3797 174° South 397 457 37,000 -182 Descending Jacksonville Center
Fri 09:34:58 AM 28.3083 -82.3456 173° South 404 465 36,800 -364 Descending Miami Center
Fri 09:35:58 AM 28.2006 -82.3308 173° South 404 465 35,800 -900 Descending Miami Center
Fri 09:36:58 AM 28.0883 -82.3161 173° South 404 465 35,000 -400 Descending Miami Center
Fri 09:37:58 AM 27.9789 -82.2919 169° South 404 465 35,000  Level Miami Center
Fri 09:38:58 AM 27.8697 -82.2539 163° South 409 471 35,000 -150 Level Miami Center
Fri 09:39:58 AM 27.7586 -82.2133 162° South 416 479 34,700 -1,000 Descending Miami Center
Fri 09:40:58 AM 27.6494 -82.1756 163° South 416 479 33,000 -1,650 Descending Miami Center
Fri 09:41:58 AM 27.5400 -82.1400 164° South 416 479 31,400 -1,700 Descending Miami Center
Fri 09:42:58 AM 27.4308 -82.1022 163° South 411 473 29,600 -1,700 Descending Miami Center
Fri 09:43:58 AM 27.3300 -82.0603 160° South 405 466 28,000 -1,500 Descending Miami Center
Fri 09:44:58 AM 27.2278 -81.9997 152° Southeast 405 466 26,600 -1,400 Descending Miami Center
Fri 09:45:58 AM 27.1319 -81.9417 152° Southeast 405 466 25,200 -1,300 Descending Miami Center
Fri 09:46:58 AM 27.0378 -81.8864 152° Southeast 398 458 24,000 -1,200 Descending Miami Center
Fri 09:47:58 AM 26.9436 -81.8333 153° Southeast 386 444 22,800 -1,250 Descending Miami Center
Fri 09:48:58 AM 26.8514 -81.7806 153° Southeast 381 438 21,500 -1,350 Descending Miami Center
Fri 09:49:58 AM 26.7594 -81.7256 152° Southeast 375 432 20,100 -1,250 Descending Miami Center
Fri 09:50:58 AM 26.6950 -81.6556 136° Southeast 365 420 19,000 -850 Descending Miami Center
Fri 09:51:58 AM 26.7067 -81.5467 83° East 301 346 18,400 -500 Descending Miami Center
Fri 09:52:58 AM 26.7333 -81.4386 75° East 314 361 18,000 -300 Descending Miami Center
Fri 09:53:58 AM 26.7572 -81.3347 76° East 333 383 17,800 -1,100 Descending Miami Center
Fri 09:54:58 AM 26.7836 -81.2242 75° East 351 404 15,800 -1,950 Descending Miami Center
Fri 09:55:58 AM 26.8097 -81.1228 74° East 351 404 13,900 -2,050 Descending Miami Center
Fri 09:56:58 AM 26.8231 -81.0233 81° East 327 376 11,700 -1,950 Descending Miami Center
Fri 09:57:58 AM 26.8319 -80.9306 84° East 305 351 10,000 -900 Descending Miami Center
Fri 09:58:58 AM 26.8322 -80.8419 90° East 287 330 9,900 -50 Descending Miami Center
Fri 09:59:58 AM 26.8031 -80.7572 111° Southeast 273 314 9,900 -400 Level Miami Center
Fri 10:00:58 AM 26.7736 -80.6864 115° Southeast 268 308 9,100 -1,100 Descending Miami Center
Fri 10:01:58 AM 26.7503 -80.6253 113° Southeast 251 289 7,700 -1,450 Descending Miami Center
Fri 10:02:58 AM 26.7208 -80.5522 114° Southeast 229 264 6,200 -1,350 Descending Miami Center
Fri 10:03:58 AM 26.6908 -80.5000 123° Southeast 229 264 5,000 -600 Descending Miami Center
Fri 10:04:58 AM 26.6547 -80.4364 122° Southeast 224 258 5,000  Level Miami Center
Fri 10:05:58 AM 26.6247 -80.3867 124° Southeast 219 252 5,000  Level Miami Center
Fri 10:07:00 AM 26.6181 -80.2695 119° Southeast  Level FlightAware Approximate
Fri 10:14:00 AM 26.6667 -80.0833 50° Northeast  Level FlightAware Approximate
Fri 10:15:00 AM 26.6832 -80.0956 50° Northeast  Level Estimated
Fri 10:16:00 AM 26.6832 -80.0956 50° Northeast  Level Estimated
Fri 10:17:00 AM 26.6832 -80.0956 50° Northeast  Level Estimated
Fri 10:18:00 AM 26.6832 -80.0956 50° Northeast  Level Estimated
Fri 10:19:00 AM 26.6832 -80.0956 50° Northeast  Level Estimated
Fri 10:20:00 AM 26.6832 -80.0956 50° Northeast  Level Estimated
Fri 10:21:00 AM 26.6832 -80.0956 50° Northeast  Level Estimated
Fri 10:22:00 AM 26.6832 -80.0956 50° Northeast  Level Estimated
Fri 10:23:00 AM 26.6832 -80.0956 50° Northeast  Level Estimated

Login

Don't have an account? Register now (free) for customized features, flight alerts, and more!